Time;durP1;ratioP1;P1;durP2;ratioP2;P2;SDS_P1;SDS_P2;PMS_P1;PMS_P2;Temp;Humidity;BMP_temperature;BMP_pressure;BME280_temperature;BME280_humidity;BME280_pressure;Samples;Min_cycle;Max_cycle;Signal;HPM_P1;HPM_P2
2022/06/20 00:00:55;;;;;;;5.18;2.88;;;;;;;14.22;86.82;97025.47;4987692;28;20057;-60
2022/06/20 00:03:44;;;;;;;4.72;2.90;;;;;;;14.67;87.21;97097.25;4987405;28;20065;-61
2022/06/20 00:06:17;;;;;;;3.78;2.80;;;;;;;14.53;87.18;97108.38;4987598;28;20082;-62
2022/06/20 00:08:44;;;;;;;4.22;2.95;;;;;;;14.43;88.72;97104.38;4987656;28;20053;-61
2022/06/20 00:11:16;;;;;;;5.07;2.67;;;;;;;14.48;88.95;97094.84;4987373;28;20061;-61
2022/06/20 00:13:47;;;;;;;3.30;3.00;;;;;;;14.17;88.63;97051.72;4987453;28;20152;-62
2022/06/20 00:16:16;;;;;;;6.05;3.05;;;;;;;14.42;88.59;97101.97;4985820;28;20486;-61
2022/06/20 00:18:44;;;;;;;3.95;2.67;;;;;;;13.86;87.71;97069.13;4987266;28;20101;-62
2022/06/20 00:21:13;;;;;;;4.28;3.03;;;;;;;14.37;88.42;97085.66;4987278;28;20065;-62
2022/06/20 00:23:40;;;;;;;3.95;2.85;;;;;;;13.93;89.26;97040.47;4986966;28;20061;-63
2022/06/20 00:26:08;;;;;;;5.18;2.70;;;;;;;14.29;89.31;97086.81;4986891;28;20465;-60
2022/06/20 00:28:35;;;;;;;4.88;2.92;;;;;;;14.11;89.63;97088.72;4985635;28;20051;-61
2022/06/20 00:31:02;;;;;;;3.85;2.92;;;;;;;13.89;90.33;97034.09;4986593;28;20062;-61
2022/06/20 00:33:29;;;;;;;3.88;3.25;;;;;;;13.72;91.16;97013.34;5001769;28;20054;-61
2022/06/20 00:35:57;;;;;;;3.58;3.03;;;;;;;13.70;90.98;96994.25;4986489;28;20050;-61
2022/06/20 00:38:25;;;;;;;3.75;2.67;;;;;;;13.97;90.92;97041.31;4986972;28;20053;-61
2022/06/20 00:40:58;;;;;;;4.03;2.75;;;;;;;14.19;91.22;97076.41;4986591;28;20548;-61
2022/06/20 00:43:32;;;;;;;4.40;2.60;;;;;;;14.18;90.25;97074.81;4985459;28;20064;-61
2022/06/20 00:46:03;;;;;;;4.50;2.55;;;;;;;13.54;90.10;96991.03;4986445;28;20054;-61
2022/06/20 00:48:40;;;;;;;5.22;2.58;;;;;;;14.02;91.61;97066.78;4986975;28;20065;-62
2022/06/20 00:51:16;;;;;;;5.00;2.72;;;;;;;14.05;91.36;97065.22;4986407;28;20073;-63
2022/06/20 00:53:53;;;;;;;3.90;3.08;;;;;;;14.01;91.79;97070.75;4986316;28;20505;-61
2022/06/20 00:56:41;;;;;;;3.55;2.88;;;;;;;14.10;91.98;97062.06;4985384;28;20062;-60
2022/06/20 00:59:15;;;;;;;3.53;2.78;;;;;;;13.86;89.90;97019.00;4986457;28;20051;-61
2022/06/20 01:01:42;;;;;;;7.53;3.10;;;;;;;13.48;89.62;96953.59;4986485;28;20066;-62
2022/06/20 01:04:15;;;;;;;3.28;2.47;;;;;;;14.16;90.18;97054.91;4985105;28;20057;-60
2022/06/20 01:06:53;;;;;;;3.73;3.30;;;;;;;13.62;90.63;96970.34;4986365;28;20054;-62
2022/06/20 01:09:24;;;;;;;4.82;3.00;;;;;;;13.88;90.66;97004.69;4986261;28;20058;-61
2022/06/20 01:11:56;;;;;;;4.40;3.60;;;;;;;14.07;90.96;97048.91;4986139;28;20501;-61
2022/06/20 01:14:25;;;;;;;4.75;3.20;;;;;;;14.17;89.99;97045.34;4986185;28;20065;-61
2022/06/20 01:16:58;;;;;;;3.45;3.10;;;;;;;14.21;89.97;97057.31;5000815;28;20058;-60
2022/06/20 01:20:03;;;;;;;3.55;3.20;;;;;;;14.12;90.32;97040.16;4984672;28;20050;-61
2022/06/20 01:23:05;;;;;;;4.03;3.03;;;;;;;14.12;90.16;97037.38;4986086;28;20485;-62
2022/06/20 01:25:36;;;;;;;5.65;3.03;;;;;;;14.06;90.40;97044.50;4985421;28;20136;-61
2022/06/20 01:28:08;;;;;;;6.63;3.10;;;;;;;13.17;90.64;96915.31;4985842;28;20046;-61
2022/06/20 01:30:40;;;;;;;3.90;3.17;;;;;;;13.89;91.60;97039.69;4985684;28;20070;-61
2022/06/20 01:33:07;;;;;;;6.20;2.85;;;;;;;13.38;91.73;96968.28;4986152;28;20064;-63
2022/06/20 01:38:21;;;;;;;4.55;3.33;;;;;;;13.86;91.76;97040.47;4985711;28;20062;-61
2022/06/20 01:43:35;;;;;;;5.22;3.20;;;;;;;13.38;93.22;96990.56;4986287;28;20054;-61
2022/06/20 01:46:09;;;;;;;3.88;3.03;;;;;;;13.41;94.18;96997.31;5000510;28;20058;-60
2022/06/20 01:48:40;;;;;;;4.13;2.92;;;;;;;13.64;93.82;97034.78;4985719;28;20058;-61
2022/06/20 01:51:22;;;;;;;5.10;3.35;;;;;;;13.70;93.63;97033.22;4985544;28;20058;-62
2022/06/20 01:53:52;;;;;;;7.13;3.05;;;;;;;13.55;92.88;97005.72;4985884;28;20634;-61
2022/06/20 01:56:21;;;;;;;12.15;4.10;;;;;;;13.49;93.85;97033.13;4985321;28;20058;-60
2022/06/20 01:59:01;;;;;;;3.25;2.95;;;;;;;13.55;93.64;97028.78;4985373;28;20520;-60
2022/06/20 02:01:33;;;;;;;4.93;3.75;;;;;;;13.27;93.40;96961.06;4983210;28;20271;-61
2022/06/20 02:04:01;;;;;;;3.90;3.50;;;;;;;13.63;93.34;97022.06;4985404;28;20523;-61
2022/06/20 02:06:29;;;;;;;5.97;3.97;;;;;;;13.49;93.02;97004.50;4985161;28;20211;-60
2022/06/20 02:08:57;;;;;;;4.75;3.50;;;;;;;12.90;93.55;96907.63;4985410;28;20057;-62
2022/06/20 02:11:32;;;;;;;8.02;3.38;;;;;;;13.56;93.75;97010.13;4999674;28;20058;-61
2022/06/20 02:14:04;;;;;;;4.00;3.03;;;;;;;13.59;93.13;97015.69;4983833;28;20062;-63
2022/06/20 02:16:34;;;;;;;3.25;2.60;;;;;;;13.58;93.73;97013.28;4985710;28;20062;-60
2022/06/20 02:19:05;;;;;;;4.85;3.50;;;;;;;13.53;93.59;97008.13;4985281;28;20112;-63
2022/06/20 02:21:35;;;;;;;4.00;3.55;;;;;;;13.35;93.26;96982.97;4984968;28;20065;-61
2022/06/20 02:24:23;;;;;;;3.50;3.00;;;;;;;13.50;93.43;97012.47;4999937;28;20050;-61
2022/06/20 02:26:54;;;;;;;8.52;3.40;;;;;;;12.51;94.28;96896.25;4983213;28;20597;-60
2022/06/20 02:29:26;;;;;;;4.18;2.92;;;;;;;13.39;94.64;97011.59;4984980;28;20069;-60
2022/06/20 02:32:00;;;;;;;;;;;;;;;13.36;94.80;97001.25;4985237;28;20059;-63
2022/06/20 02:34:29;;;;;;;6.32;3.10;;;;;;;13.31;95.71;97004.41;4985074;28;20411;-61
2022/06/20 02:37:01;;;;;;;4.25;3.20;;;;;;;12.97;96.20;96972.41;4984738;28;20468;-60
2022/06/20 02:39:29;;;;;;;4.80;3.55;;;;;;;13.19;95.99;96985.28;4984752;28;20061;-60
2022/06/20 02:42:01;;;;;;;4.22;3.13;;;;;;;12.98;95.74;96962.84;4984735;28;20058;-61
2022/06/20 02:44:29;;;;;;;3.38;3.03;;;;;;;13.38;95.53;97015.59;4983148;28;20061;-61
2022/06/20 02:46:56;;;;;;;6.05;3.47;;;;;;;13.29;95.14;97006.78;4984503;28;20410;-60
2022/06/20 02:49:27;;;;;;;4.18;3.22;;;;;;;13.27;95.27;96992.47;4983280;28;20053;-61
2022/06/20 02:51:56;;;;;;;3.65;3.10;;;;;;;13.39;95.66;97006.03;4983375;28;20051;-61
2022/06/20 02:54:27;;;;;;;4.55;3.13;;;;;;;13.01;94.43;96934.31;4999681;28;20050;-60
2022/06/20 02:57:00;;;;;;;4.63;3.55;;;;;;;13.55;93.27;97000.16;4983302;28;20051;-62
2022/06/20 02:59:35;;;;;;;3.83;3.20;;;;;;;13.39;93.05;96983.78;4984621;28;20069;-61
2022/06/20 03:02:11;;;;;;;5.32;3.08;;;;;;;13.44;93.94;97002.91;4983347;28;20065;-61
2022/06/20 03:04:41;;;;;;;4.50;3.53;;;;;;;13.48;92.66;96997.34;4982999;28;20061;-61
2022/06/20 03:07:15;;;;;;;6.70;4.00;;;;;;;13.10;92.62;96950.66;4984820;28;20047;-61
2022/06/20 03:09:44;;;;;;;6.55;3.55;;;;;;;13.41;92.72;97000.91;4983183;28;20504;-61
2022/06/20 03:12:12;;;;;;;5.10;3.47;;;;;;;12.73;93.93;96911.06;4984845;28;20568;-61
2022/06/20 03:14:49;;;;;;;9.00;3.65;;;;;;;13.21;94.19;96979.31;4986954;28;20050;-60
2022/06/20 03:17:19;;;;;;;5.20;3.08;;;;;;;13.48;93.89;96998.13;4988264;28;20502;-60
2022/06/20 03:19:50;;;;;;;4.70;3.00;;;;;;;13.38;93.94;96976.63;4988361;28;20141;-60
2022/06/20 03:22:21;;;;;;;3.85;3.15;;;;;;;13.51;94.05;96980.66;4988173;28;20058;-63
2022/06/20 03:24:51;;;;;;;6.30;3.50;;;;;;;13.78;93.65;97000.66;4988225;28;20054;-60
2022/06/20 03:27:24;;;;;;;5.53;3.40;;;;;;;13.48;92.89;96931.34;4987965;28;20054;-60
2022/06/20 03:29:56;;;;;;;5.25;3.35;;;;;;;13.46;93.57;96932.94;4987946;28;20532;-61
2022/06/20 03:32:24;;;;;;;4.70;3.05;;;;;;;13.99;92.94;96988.81;4988194;28;20061;-61
2022/06/20 03:34:52;;;;;;;8.05;4.50;;;;;;;13.43;93.06;96895.56;4988106;28;20732;-61
2022/06/20 03:37:20;;;;;;;3.70;3.33;;;;;;;13.76;92.37;96930.66;4988060;28;20054;-61
2022/06/20 03:39:48;;;;;;;4.13;3.38;;;;;;;14.31;91.05;96993.28;4986456;28;20077;-61
2022/06/20 03:42:15;;;;;;;4.65;3.40;;;;;;;14.34;91.78;96994.47;4987891;28;20062;-61
2022/06/20 03:44:48;;;;;;;4.00;3.50;;;;;;;14.26;92.08;96987.28;4987986;28;20531;-60
2022/06/20 03:47:20;;;;;;;3.50;3.03;;;;;;;14.39;91.33;96985.72;4988133;28;20172;-60
2022/06/20 03:50:18;;;;;;;5.13;3.40;;;;;;;14.42;91.28;96979.34;5002676;28;20532;-61
2022/06/20 03:53:01;;;;;;;4.47;3.40;;;;;;;14.49;91.13;96980.16;4987574;28;20069;-61
2022/06/20 03:55:35;;;;;;;4.53;3.30;;;;;;;14.75;89.85;96976.16;4989840;28;20449;-61
2022/06/20 03:58:10;;;;;;;3.95;3.10;;;;;;;14.86;88.72;96993.69;4987665;28;20054;-62
2022/06/20 04:01:08;;;;;;;3.58;3.03;;;;;;;14.95;89.27;96971.78;4987619;28;20061;-63
2022/06/20 04:03:38;;;;;;;5.65;3.80;;;;;;;15.18;87.53;96997.25;5002155;28;20058;-62
2022/06/20 04:06:09;;;;;;;3.30;3.00;;;;;;;15.29;86.08;96970.13;5002159;28;20145;-62
2022/06/20 04:11:46;;;;;;;7.10;3.15;;;;;;;15.43;83.85;96956.16;4987257;28;20058;-61
2022/06/20 04:14:21;;;;;;;4.55;3.38;;;;;;;15.33;83.55;96929.06;4987502;28;20057;-61
2022/06/20 04:16:55;;;;;;;7.85;3.75;;;;;;;15.78;82.86;96972.75;4986929;28;20059;-62
2022/06/20 04:19:29;;;;;;;5.97;3.85;;;;;;;15.82;82.62;96979.13;4985602;28;20046;-62
2022/06/20 04:22:08;;;;;;;5.85;4.32;;;;;;;14.89;81.93;96792.09;4985447;28;20057;-62
2022/06/20 04:24:41;;;;;;;3.75;3.33;;;;;;;16.27;80.57;96983.69;4986369;28;20069;-61
2022/06/20 04:27:17;;;;;;;6.30;3.25;;;;;;;16.39;80.00;96976.81;4987146;28;20054;-61
2022/06/20 04:30:06;;;;;;;4.88;3.55;;;;;;;16.24;78.96;96936.97;5001427;28;20050;-61
2022/06/20 04:32:48;;;;;;;5.35;3.05;;;;;;;16.83;77.19;96973.31;4985670;28;20062;-61
2022/06/20 04:35:31;;;;;;;4.30;3.10;;;;;;;16.96;76.86;96974.41;5001624;28;20057;-61
2022/06/20 04:38:26;;;;;;;4.25;3.75;;;;;;;17.16;75.97;96975.41;4985572;28;20436;-61
2022/06/20 04:40:59;;;;;;;5.68;3.42;;;;;;;17.18;75.80;96967.38;4986933;28;20070;-61
2022/06/20 04:43:50;;;;;;;9.00;5.00;;;;;;;17.45;75.11;96969.13;4987019;28;20055;-61
2022/06/20 04:46:23;;;;;;;6.35;4.50;;;;;;;17.59;74.68;96965.38;4987025;28;20054;-61
2022/06/20 04:48:50;;;;;;;6.87;3.93;;;;;;;17.75;75.36;96959.97;4987242;28;20053;-61
2022/06/20 04:51:20;;;;;;;9.85;4.70;;;;;;;17.90;74.49;96958.56;5002017;28;20058;-61
2022/06/20 04:53:48;;;;;;;5.22;3.72;;;;;;;18.00;74.04;96949.25;4985452;28;20406;-62
2022/06/20 04:56:26;;;;;;;7.22;3.75;;;;;;;18.20;74.12;96952.94;4986843;28;20469;-61
2022/06/20 04:59:00;;;;;;;9.13;3.65;;;;;;;18.46;74.35;96957.03;4985315;28;20054;-62
2022/06/20 05:01:31;;;;;;;4.15;3.70;;;;;;;18.56;73.19;96948.44;5001363;28;20069;-62
2022/06/20 05:04:07;;;;;;;4.53;3.97;;;;;;;18.47;71.25;96906.09;4986396;28;20497;-61
2022/06/20 05:06:37;;;;;;;9.10;3.90;;;;;;;18.85;71.21;96955.19;5001241;28;20057;-60
2022/06/20 05:09:31;;;;;;;5.15;4.63;;;;;;;18.95;71.36;96954.19;4986792;28;20494;-61
2022/06/20 05:12:14;;;;;;;7.07;4.27;;;;;;;18.98;71.54;96958.97;4986389;28;20050;-62
2022/06/20 05:14:50;;;;;;;5.78;4.07;;;;;;;18.81;71.24;96869.44;4985002;28;20054;-61
2022/06/20 05:17:22;;;;;;;5.80;3.92;;;;;;;19.31;70.26;96932.72;4984771;28;20054;-61
2022/06/20 05:19:54;;;;;;;3.88;3.55;;;;;;;19.51;69.53;96941.16;4984929;28;20058;-61
2022/06/20 05:22:26;;;;;;;5.93;4.50;;;;;;;19.51;69.23;96946.78;4986015;28;20050;-61
2022/06/20 05:24:57;;;;;;;8.27;4.25;;;;;;;19.39;68.06;96894.81;4985590;28;20054;-61
2022/06/20 05:27:45;;;;;;;5.00;3.75;;;;;;;19.88;67.23;96935.19;4984460;28;20046;-60
2022/06/20 05:30:21;;;;;;;5.60;3.72;;;;;;;19.96;67.87;96938.63;4985455;28;20054;-60
2022/06/20 05:33:05;;;;;;;7.57;4.40;;;;;;;20.06;67.26;96937.63;4985878;28;20058;-62
2022/06/20 05:35:41;;;;;;;4.60;4.10;;;;;;;20.09;67.31;96919.88;4984625;28;20547;-61
2022/06/20 05:38:11;;;;;;;7.38;3.90;;;;;;;20.45;65.93;96935.53;4983837;28;20065;-60
2022/06/20 05:40:51;;;;;;;7.25;3.65;;;;;;;20.61;65.07;96923.50;5000464;28;20055;-61
2022/06/20 05:43:30;;;;;;;6.38;4.03;;;;;;;20.92;64.35;96939.59;4985980;28;20062;-60
2022/06/20 05:46:06;;;;;;;5.90;3.70;;;;;;;20.68;63.18;96872.63;4985226;28;20116;-63
2022/06/20 05:48:43;;;;;;;4.18;3.75;;;;;;;20.81;62.55;96848.19;4984172;28;20448;-61
2022/06/20 05:51:14;;;;;;;4.30;3.60;;;;;;;21.25;61.83;96905.78;4985583;28;20084;-61
2022/06/20 05:53:56;;;;;;;4.95;3.65;;;;;;;21.36;61.85;96884.53;4982543;28;20570;-62
2022/06/20 05:56:29;;;;;;;4.60;3.53;;;;;;;21.58;61.07;96898.81;4974841;28;20066;-62
2022/06/20 05:58:57;;;;;;;5.15;3.60;;;;;;;21.86;59.95;96912.91;4980317;28;20058;-62
2022/06/20 06:01:41;;;;;;;4.90;4.15;;;;;;;22.08;59.37;96918.72;4983603;28;20066;-63
2022/06/20 06:04:30;;;;;;;4.93;3.35;;;;;;;22.28;58.88;96916.47;4985031;28;20054;-65
2022/06/20 06:07:01;;;;;;;4.60;3.42;;;;;;;22.51;57.83;96935.13;4984811;28;20054;-63
2022/06/20 06:09:51;;;;;;;4.93;3.90;;;;;;;22.76;57.92;96906.91;4982243;28;20137;-61
2022/06/20 06:12:41;;;;;;;4.40;4.00;;;;;;;23.02;57.14;96902.78;4994787;28;20058;-60
2022/06/20 06:15:16;;;;;;;5.00;4.45;;;;;;;23.13;57.10;96897.56;4983775;28;20054;-59
2022/06/20 06:17:54;;;;;;;6.22;3.60;;;;;;;23.15;57.08;96909.19;4981797;28;20473;-66
2022/06/20 06:20:24;;;;;;;13.40;6.10;;;;;;;23.11;56.83;96885.94;4980521;28;20073;-66
2022/06/20 06:22:56;;;;;;;4.97;3.88;;;;;;;23.35;56.11;96892.78;4983353;28;20052;-63
2022/06/20 06:25:29;;;;;;;4.47;3.85;;;;;;;23.44;55.66;96870.25;4984068;28;20054;-61
2022/06/20 06:28:01;;;;;;;5.85;3.67;;;;;;;23.69;55.72;96893.53;4984294;28;20058;-63
2022/06/20 06:30:32;;;;;;;5.82;3.72;;;;;;;23.69;55.27;96884.25;4984263;28;20081;-61
2022/06/20 06:33:11;;;;;;;5.40;3.80;;;;;;;23.83;54.91;96880.91;4978991;28;20136;-62
2022/06/20 06:35:43;;;;;;;5.53;3.90;;;;;;;22.53;54.16;96655.97;4978205;28;20054;-62
2022/06/20 06:38:16;;;;;;;4.57;3.53;;;;;;;23.81;52.41;96840.94;4997393;28;20081;-63
2022/06/20 06:40:54;;;;;;;4.95;3.45;;;;;;;24.23;52.15;96878.97;4981600;28;20405;-64
2022/06/20 06:43:24;;;;;;;8.18;3.95;;;;;;;24.43;51.86;96870.88;4979650;28;20102;-60
2022/06/20 06:45:53;;;;;;;4.70;3.65;;;;;;;24.74;51.29;96874.47;4980902;28;20066;-61
2022/06/20 06:48:30;;;;;;;5.18;4.18;;;;;;;24.97;48.97;96865.41;4972467;28;20059;-62
2022/06/20 06:51:09;;;;;;;2.70;2.38;;;;;;;25.08;42.87;96871.41;4984785;28;20060;-59
2022/06/20 06:53:42;;;;;;;2.92;2.67;;;;;;;24.88;42.30;96805.84;4976981;28;20076;-64
2022/06/20 06:56:12;;;;;;;5.28;2.72;;;;;;;25.35;41.60;96861.38;4967832;28;20050;-62
2022/06/20 06:58:53;;;;;;;3.78;3.47;;;;;;;25.52;44.29;96856.94;4979570;28;20058;-62
2022/06/20 07:01:25;;;;;;;3.88;3.22;;;;;;;25.66;44.70;96850.63;4984888;28;20062;-61
2022/06/20 07:04:00;;;;;;;4.75;3.35;;;;;;;25.69;44.35;96852.56;4968834;28;20800;-61
2022/06/20 07:06:42;;;;;;;3.95;3.45;;;;;;;25.95;44.36;96845.22;4968673;28;20070;-62
2022/06/20 07:09:32;;;;;;;3.28;3.08;;;;;;;26.14;42.88;96852.47;4973220;28;20058;-64
2022/06/20 07:12:11;;;;;;;4.43;3.10;;;;;;;26.31;41.07;96848.00;4987658;28;20169;-61
2022/06/20 07:14:44;;;;;;;8.13;3.28;;;;;;;26.47;39.41;96844.78;5000226;28;20077;-65
2022/06/20 07:17:11;;;;;;;3.15;2.95;;;;;;;26.65;37.87;96844.72;4984749;28;20046;-66
2022/06/20 07:19:44;;;;;;;5.55;3.08;;;;;;;26.65;37.60;96822.75;4999646;28;20068;-62
2022/06/20 07:22:14;;;;;;;2.80;2.60;;;;;;;24.81;37.66;96528.47;4984965;28;20539;-67
2022/06/20 07:24:44;;;;;;;2.90;2.70;;;;;;;26.59;37.93;96816.13;4984141;28;20053;-65
2022/06/20 07:27:18;;;;;;;4.32;3.95;;;;;;;27.14;37.32;96830.81;4984456;28;20066;-66
2022/06/20 07:29:54;;;;;;;3.15;2.85;;;;;;;26.93;37.25;96825.44;4985036;28;20514;-63
2022/06/20 07:32:30;;;;;;;2.60;2.33;;;;;;;26.86;36.12;96820.91;4979511;28;20145;-67
2022/06/20 07:35:06;;;;;;;5.22;2.50;;;;;;;26.88;35.82;96826.91;4986783;28;20061;-64
2022/06/20 07:37:46;;;;;;;2.70;2.50;;;;;;;26.27;34.32;96819.75;4986575;28;20058;-62
2022/06/20 07:40:22;;;;;;;2.75;2.45;;;;;;;25.69;36.87;96832.69;4987325;28;20061;-61
2022/06/20 07:42:58;;;;;;;4.07;2.70;;;;;;;26.21;38.04;96829.41;4987532;28;20057;-67
2022/06/20 07:45:24;;;;;;;3.80;3.05;;;;;;;26.57;37.31;96815.06;4987205;28;20054;-64
2022/06/20 07:47:56;;;;;;;3.15;2.85;;;;;;;26.90;35.33;96815.84;4986579;28;20046;-62
2022/06/20 07:50:31;;;;;;;11.50;3.38;;;;;;;26.83;35.48;96787.75;4985369;28;20050;-63
2022/06/20 07:53:11;;;;;;;2.70;2.45;;;;;;;27.30;34.93;96819.03;4984828;28;20548;-61
2022/06/20 07:55:43;;;;;;;3.47;3.28;;;;;;;27.45;34.13;96799.94;4983870;28;20104;-62
2022/06/20 07:58:24;;;;;;;3.85;2.53;;;;;;;27.61;32.98;96805.19;4986124;28;20059;-60
2022/06/20 08:00:52;;;;;;;4.28;2.63;;;;;;;27.70;33.08;96796.53;4984873;28;20069;-61
2022/06/20 08:03:31;;;;;;;4.55;2.95;;;;;;;27.88;33.68;96810.59;4984889;28;20057;-62
2022/06/20 08:06:04;;;;;;;4.30;3.88;;;;;;;27.58;33.65;96803.31;4985457;28;20093;-63
2022/06/20 08:08:56;;;;;;;3.67;3.37;;;;;;;27.55;33.07;96764.41;4986329;28;20506;-61
2022/06/20 08:11:41;;;;;;;3.50;2.92;;;;;;;27.59;33.45;96798.38;5000166;28;20136;-60
2022/06/20 08:14:31;;;;;;;4.78;2.78;;;;;;;27.41;33.85;96787.19;4985208;28;20054;-59
2022/06/20 08:17:03;;;;;;;5.85;3.17;;;;;;;27.65;34.13;96791.53;4980714;28;20057;-59
2022/06/20 08:19:31;;;;;;;3.57;2.77;;;;;;;27.73;34.73;96792.72;5003394;28;20054;-60
2022/06/20 08:22:08;;;;;;;2.97;2.80;;;;;;;27.92;34.80;96788.44;5004888;28;20464;-60
2022/06/20 08:24:42;;;;;;;3.97;2.88;;;;;;;27.95;34.72;96787.44;5004254;28;20061;-59
2022/06/20 08:27:15;;;;;;;3.38;3.03;;;;;;;27.61;34.19;96739.72;5005617;28;20061;-60
2022/06/20 08:29:55;;;;;;;2.83;2.63;;;;;;;28.32;34.20;96792.69;5004726;28;20477;-60
2022/06/20 08:32:32;;;;;;;3.97;3.45;;;;;;;28.27;33.14;96776.28;5006245;28;20065;-60
2022/06/20 08:34:59;;;;;;;3.38;3.00;;;;;;;26.58;36.14;96785.38;5004864;28;20057;-60
2022/06/20 08:37:34;;;;;;;10.63;4.32;;;;;;;26.70;35.87;96782.31;5005893;28;20070;-60
2022/06/20 08:40:13;;;;;;;7.18;3.97;;;;;;;27.28;36.05;96778.94;5006346;28;20058;-60
2022/06/20 08:43:01;;;;;;;3.53;3.22;;;;;;;27.68;34.41;96779.16;5004397;28;20046;-60
2022/06/20 08:45:57;;;;;;;2.80;2.70;;;;;;;28.07;33.54;96760.72;5005931;28;20467;-60
2022/06/20 08:48:39;;;;;;;3.05;2.80;;;;;;;28.46;33.32;96780.47;5004429;28;20432;-58
2022/06/20 08:51:30;;;;;;;2.95;2.75;;;;;;;28.93;33.58;96774.44;5004421;28;20577;-59
2022/06/20 08:54:15;;;;;;;3.15;2.92;;;;;;;29.17;32.70;96780.75;5005939;28;20420;-58
2022/06/20 08:56:50;;;;;;;3.30;3.10;;;;;;;29.11;31.99;96771.34;5005611;28;20050;-60
2022/06/20 08:59:29;;;;;;;4.13;2.85;;;;;;;28.90;32.08;96775.44;5005431;28;20061;-59
2022/06/20 09:02:25;;;;;;;4.47;4.18;;;;;;;28.41;33.78;96779.13;5005040;28;20436;-60
2022/06/20 09:04:52;;;;;;;3.80;3.50;;;;;;;28.48;33.58;96773.06;5005537;28;20104;-61
2022/06/20 09:07:28;;;;;;;3.33;2.90;;;;;;;27.48;34.43;96781.91;5005587;28;20050;-59
2022/06/20 09:10:09;;;;;;;3.10;2.90;;;;;;;27.41;33.96;96776.56;5005052;28;20061;-61
2022/06/20 09:13:13;;;;;;;3.25;3.05;;;;;;;27.69;34.01;96780.75;5005537;28;20064;-62
2022/06/20 09:16:33;;;;;;;3.58;3.28;;;;;;;27.41;35.20;96765.19;5003616;28;20061;-62
2022/06/20 09:19:15;;;;;;;5.05;3.22;;;;;;;26.88;36.64;96783.47;4985984;28;20080;-62
2022/06/20 09:22:01;;;;;;;4.32;2.80;;;;;;;27.16;35.37;96771.41;5002292;28;20132;-62
2022/06/20 09:24:51;;;;;;;3.58;3.10;;;;;;;27.16;34.77;96771.41;5004478;28;20076;-62
2022/06/20 09:27:42;;;;;;;3.13;2.92;;;;;;;27.18;33.59;96771.69;5005094;28;20410;-62
2022/06/20 09:30:22;;;;;;;3.92;2.70;;;;;;;27.14;33.35;96768.25;5004796;28;20050;-63
2022/06/20 09:32:58;;;;;;;2.90;2.70;;;;;;;27.82;32.83;96766.97;5003542;28;20065;-63
2022/06/20 09:35:43;;;;;;;2.83;2.58;;;;;;;28.42;32.76;96763.63;5004649;28;20061;-63
2022/06/20 09:39:04;;;;;;;2.72;2.53;;;;;;;29.00;32.05;96734.09;5005106;28;20053;-63
2022/06/20 09:41:57;;;;;;;3.70;3.05;;;;;;;27.43;31.84;96449.66;5021588;28;20460;-62
2022/06/20 09:44:43;;;;;;;2.70;2.50;;;;;;;29.76;31.77;96753.44;5016099;28;20052;-62
2022/06/20 09:47:28;;;;;;;3.55;3.25;;;;;;;30.10;30.71;96758.13;5004705;28;20057;-62
2022/06/20 09:50:40;;;;;;;4.38;3.28;;;;;;;30.00;31.49;96756.78;5004687;28;20060;-62
2022/06/20 09:53:27;;;;;;;4.47;3.17;;;;;;;28.81;32.77;96744.22;4999453;28;20144;-61
2022/06/20 09:55:57;;;;;;;5.13;2.72;;;;;;;28.54;33.37;96750.31;4983378;28;20054;-61
2022/06/20 09:58:43;;;;;;;3.20;3.00;;;;;;;28.57;33.58;96752.97;4984906;28;20065;-61
2022/06/20 10:01:24;;;;;;;4.50;2.97;;;;;;;27.38;35.50;96759.72;4985054;28;20054;-61
2022/06/20 10:04:23;;;;;;;13.32;4.40;;;;;;;27.28;35.47;96749.69;4985011;28;20046;-62
2022/06/20 10:07:25;;;;;;;3.13;2.92;;;;;;;26.96;35.66;96756.22;4998272;28;20563;-62
2022/06/20 10:10:06;;;;;;;3.65;3.33;;;;;;;27.21;35.04;96708.16;4999072;28;20127;-67
2022/06/20 10:12:39;;;;;;;5.13;2.70;;;;;;;28.23;34.55;96727.28;5001809;28;20057;-61
2022/06/20 10:15:22;;;;;;;3.13;2.78;;;;;;;27.70;33.40;96731.06;5003983;28;20066;-61
2022/06/20 10:18:04;;;;;;;3.00;2.80;;;;;;;28.43;32.30;96735.88;5004380;28;20058;-60
2022/06/20 10:20:45;;;;;;;2.67;2.58;;;;;;;28.46;32.18;96703.53;5000789;28;20087;-61
2022/06/20 10:23:50;;;;;;;2.72;2.53;;;;;;;26.94;32.24;96486.63;4993990;28;20049;-61
2022/06/20 10:26:29;;;;;;;4.30;3.20;;;;;;;28.95;31.64;96731.94;5000912;28;20062;-60
2022/06/20 10:29:07;;;;;;;6.38;3.10;;;;;;;28.31;32.94;96729.25;5000992;28;20054;-62
2022/06/20 10:31:51;;;;;;;4.07;3.75;;;;;;;27.81;33.24;96651.53;4993199;28;20057;-67
2022/06/20 10:34:29;;;;;;;10.93;4.00;;;;;;;28.32;33.01;96690.13;5001880;28;20112;-62
2022/06/20 10:37:13;;;;;;;3.78;3.45;;;;;;;28.46;33.83;96729.19;4992446;28;20054;-62
2022/06/20 10:39:43;;;;;;;;;;;;;;;27.28;35.19;96733.41;5003641;28;20053;-62
2022/06/20 10:42:33;;;;;;;3.47;2.58;;;;;;;27.11;36.28;96731.47;5002398;28;20043;-61
2022/06/20 10:45:09;;;;;;;7.28;4.53;;;;;;;27.22;36.91;96732.47;5003932;28;20054;-61
2022/06/20 10:47:41;;;;;;;2.88;2.60;;;;;;;27.54;34.41;96733.59;5000062;28;20054;-61
2022/06/20 10:50:17;;;;;;;3.75;3.45;;;;;;;28.18;34.84;96723.09;4989462;28;20045;-62
2022/06/20 10:52:55;;;;;;;4.20;3.03;;;;;;;28.15;33.31;96641.47;4999571;28;20115;-58
2022/06/20 10:55:43;;;;;;;3.22;3.03;;;;;;;29.25;32.53;96727.69;5001984;28;20528;-61
2022/06/20 10:58:20;;;;;;;3.50;3.20;;;;;;;28.84;32.56;96714.69;4999292;28;20057;-60
2022/06/20 11:00:54;;;;;;;3.95;3.50;;;;;;;28.47;32.39;96651.72;4994737;28;20436;-60
2022/06/20 11:03:48;;;;;;;6.22;2.97;;;;;;;29.17;32.35;96707.34;4998419;28;20417;-60
2022/06/20 11:06:44;;;;;;;2.63;2.53;;;;;;;29.81;31.44;96647.03;5000271;28;20065;-60
2022/06/20 11:09:26;;;;;;;3.17;2.80;;;;;;;30.29;30.79;96672.81;5001708;28;20054;-62
2022/06/20 11:11:56;;;;;;;3.22;2.92;;;;;;;30.98;30.13;96698.69;5001202;28;20154;-61
2022/06/20 11:14:32;;;;;;;3.15;3.00;;;;;;;31.45;28.50;96699.91;5000084;28;20057;-62
2022/06/20 11:17:17;;;;;;;3.30;3.10;;;;;;;29.60;30.72;96699.75;4999159;28;20552;-60
2022/06/20 11:20:14;;;;;;;2.80;2.60;;;;;;;28.96;31.79;96688.66;4990911;28;20057;-60
2022/06/20 11:22:47;;;;;;;3.17;2.90;;;;;;;28.43;33.83;96690.28;5001505;28;20050;-60
2022/06/20 11:25:42;;;;;;;6.18;5.57;;;;;;;28.81;33.60;96695.75;5003083;28;20046;-62
2022/06/20 11:28:17;;;;;;;5.25;3.97;;;;;;;28.61;34.17;96684.34;5001125;28;20405;-61
2022/06/20 11:31:18;;;;;;;3.17;2.88;;;;;;;29.03;33.06;96682.53;5000024;28;20062;-58
2022/06/20 11:34:06;;;;;;;3.55;3.20;;;;;;;29.74;31.64;96678.09;5005452;28;20050;-62
2022/06/20 11:36:55;;;;;;;3.08;2.88;;;;;;;30.16;31.28;96675.31;5006707;28;20460;-60
2022/06/20 11:39:38;;;;;;;3.08;2.85;;;;;;;30.21;30.27;96683.94;5006173;28;20056;-58
2022/06/20 11:42:33;;;;;;;5.07;3.13;;;;;;;30.27;31.06;96676.19;4998014;28;20064;-61
2022/06/20 11:45:29;;;;;;;3.03;2.83;;;;;;;29.79;31.69;96675.28;5003951;28;20513;-59
2022/06/20 11:48:34;;;;;;;3.50;2.80;;;;;;;29.36;30.79;96671.50;5004695;28;20058;-59
2022/06/20 11:51:14;;;;;;;2.97;2.85;;;;;;;29.79;31.05;96663.88;5003073;28;20050;-59
2022/06/20 11:53:54;;;;;;;2.65;2.45;;;;;;;29.99;29.94;96666.63;5004483;28;20508;-59
2022/06/20 11:56:41;;;;;;;3.05;2.85;;;;;;;30.16;29.94;96658.94;5004860;28;20058;-60
2022/06/20 11:59:36;;;;;;;3.10;2.90;;;;;;;29.85;30.36;96661.03;4997343;28;20156;-64
2022/06/20 12:02:25;;;;;;;2.78;2.67;;;;;;;29.92;30.54;96652.03;5004791;28;20050;-63
2022/06/20 12:05:22;;;;;;;2.97;2.78;;;;;;;30.10;30.23;96637.34;5005822;28;20108;-60
2022/06/20 12:07:57;;;;;;;3.15;2.95;;;;;;;30.67;30.36;96647.28;4996930;28;20089;-63
2022/06/20 12:10:50;;;;;;;3.22;3.03;;;;;;;30.82;28.88;96645.06;5005793;28;20050;-62
2022/06/20 12:13:36;;;;;;;3.42;3.08;;;;;;;27.85;30.62;96367.38;5003018;28;20058;-60
2022/06/20 12:16:17;;;;;;;3.03;2.78;;;;;;;29.89;29.13;96639.53;5003675;28;20061;-63
2022/06/20 12:23:18;;;;;;;5.78;3.28;;;;;;;29.41;30.41;96635.72;5002332;28;20046;-63
2022/06/20 12:24:22;;;;;;;3.00;2.80;;;;;;;30.07;29.03;96593.41;5004798;28;20046;-60
2022/06/20 12:26:49;;;;;;;3.75;3.45;;;;;;;30.79;29.23;96631.00;5002755;28;20078;-64
2022/06/20 12:29:23;;;;;;;3.75;3.15;;;;;;;32.53;26.43;96610.00;5001840;28;20260;-63
2022/06/20 12:31:56;;;;;;;3.00;2.80;;;;;;;32.30;27.61;96619.91;5003062;28;20061;-60
2022/06/20 12:34:29;;;;;;;3.70;3.30;;;;;;;32.49;26.53;96623.03;5001250;28;20296;-60